sensor_id;sensor_type;location;lat;lon;timestamp;P1;durP1;ratioP1;P2;durP2;ratioP2
67074;SDS011;53990;50.334;18.640;2023-02-23T00:00:27;96.50;;;45.40;;
67074;SDS011;53990;50.334;18.640;2023-02-23T00:03:12;92.60;;;45.60;;
67074;SDS011;53990;50.334;18.640;2023-02-23T00:05:40;84.60;;;44.90;;
67074;SDS011;53990;50.334;18.640;2023-02-23T00:08:07;87.20;;;44.80;;
67074;SDS011;53990;50.334;18.640;2023-02-23T00:10:35;90.30;;;45.10;;
67074;SDS011;53990;50.334;18.640;2023-02-23T00:13:02;91.50;;;46.30;;
67074;SDS011;53990;50.334;18.640;2023-02-23T00:15:31;92.00;;;45.20;;
67074;SDS011;53990;50.334;18.640;2023-02-23T00:17:58;83.80;;;44.30;;
67074;SDS011;53990;50.334;18.640;2023-02-23T00:20:26;89.80;;;45.20;;
67074;SDS011;53990;50.334;18.640;2023-02-23T00:22:55;85.30;;;43.40;;
67074;SDS011;53990;50.334;18.640;2023-02-23T00:25:24;87.50;;;42.30;;
67074;SDS011;53990;50.334;18.640;2023-02-23T00:27:51;92.00;;;44.40;;
67074;SDS011;53990;50.334;18.640;2023-02-23T00:30:19;91.80;;;42.80;;
67074;SDS011;53990;50.334;18.640;2023-02-23T00:32:47;87.10;;;43.00;;
67074;SDS011;53990;50.334;18.640;2023-02-23T00:35:16;84.50;;;40.80;;
67074;SDS011;53990;50.334;18.640;2023-02-23T00:37:47;79.60;;;40.60;;
67074;SDS011;53990;50.334;18.640;2023-02-23T00:40:16;82.40;;;41.70;;
67074;SDS011;53990;50.334;18.640;2023-02-23T00:42:45;79.40;;;40.60;;
67074;SDS011;53990;50.334;18.640;2023-02-23T00:45:13;73.90;;;39.50;;
67074;SDS011;53990;50.334;18.640;2023-02-23T00:47:42;82.80;;;39.80;;
67074;SDS011;53990;50.334;18.640;2023-02-23T00:50:12;76.20;;;38.30;;
67074;SDS011;53990;50.334;18.640;2023-02-23T00:52:42;74.80;;;37.50;;
67074;SDS011;53990;50.334;18.640;2023-02-23T00:55:11;70.70;;;37.70;;
67074;SDS011;53990;50.334;18.640;2023-02-23T00:57:39;72.90;;;36.90;;
67074;SDS011;53990;50.334;18.640;2023-02-23T01:00:09;71.10;;;37.00;;
67074;SDS011;53990;50.334;18.640;2023-02-23T01:02:46;67.00;;;35.20;;
67074;SDS011;53990;50.334;18.640;2023-02-23T01:05:14;66.60;;;36.30;;
67074;SDS011;53990;50.334;18.640;2023-02-23T01:07:42;67.20;;;35.80;;
67074;SDS011;53990;50.334;18.640;2023-02-23T01:10:12;65.10;;;34.50;;
67074;SDS011;53990;50.334;18.640;2023-02-23T01:12:47;67.10;;;34.80;;
67074;SDS011;53990;50.334;18.640;2023-02-23T01:15:17;66.60;;;34.70;;
67074;SDS011;53990;50.334;18.640;2023-02-23T01:17:45;63.70;;;34.20;;
67074;SDS011;53990;50.334;18.640;2023-02-23T01:20:15;62.90;;;33.40;;
67074;SDS011;53990;50.334;18.640;2023-02-23T01:22:48;60.80;;;32.50;;
67074;SDS011;53990;50.334;18.640;2023-02-23T01:25:16;59.80;;;32.50;;
67074;SDS011;53990;50.334;18.640;2023-02-23T01:27:44;57.80;;;31.70;;
67074;SDS011;53990;50.334;18.640;2023-02-23T01:30:13;62.40;;;32.80;;
67074;SDS011;53990;50.334;18.640;2023-02-23T01:32:41;58.20;;;31.40;;
67074;SDS011;53990;50.334;18.640;2023-02-23T01:35:10;56.80;;;31.40;;
67074;SDS011;53990;50.334;18.640;2023-02-23T01:37:40;56.30;;;32.40;;
67074;SDS011;53990;50.334;18.640;2023-02-23T01:40:14;54.20;;;31.70;;
67074;SDS011;53990;50.334;18.640;2023-02-23T01:42:44;52.70;;;29.00;;
67074;SDS011;53990;50.334;18.640;2023-02-23T01:45:29;57.30;;;30.30;;
67074;SDS011;53990;50.334;18.640;2023-02-23T01:48:24;53.50;;;31.20;;
67074;SDS011;53990;50.334;18.640;2023-02-23T01:50:53;57.50;;;30.80;;
67074;SDS011;53990;50.334;18.640;2023-02-23T01:53:22;52.80;;;29.10;;
67074;SDS011;53990;50.334;18.640;2023-02-23T01:55:53;55.20;;;29.70;;
67074;SDS011;53990;50.334;18.640;2023-02-23T01:58:23;55.80;;;30.50;;
67074;SDS011;53990;50.334;18.640;2023-02-23T02:00:57;49.90;;;29.10;;
67074;SDS011;53990;50.334;18.640;2023-02-23T02:03:32;55.80;;;27.90;;
67074;SDS011;53990;50.334;18.640;2023-02-23T02:06:03;51.10;;;28.50;;
67074;SDS011;53990;50.334;18.640;2023-02-23T02:08:33;45.20;;;27.30;;
67074;SDS011;53990;50.334;18.640;2023-02-23T02:11:01;49.40;;;28.00;;
67074;SDS011;53990;50.334;18.640;2023-02-23T02:13:39;46.00;;;27.90;;
67074;SDS011;53990;50.334;18.640;2023-02-23T02:19:01;44.40;;;26.10;;
67074;SDS011;53990;50.334;18.640;2023-02-23T02:27:12;45.10;;;25.60;;
67074;SDS011;53990;50.334;18.640;2023-02-23T02:41:18;43.70;;;24.30;;
67074;SDS011;53990;50.334;18.640;2023-02-23T02:43:59;39.60;;;24.70;;
67074;SDS011;53990;50.334;18.640;2023-02-23T02:46:34;40.70;;;23.30;;
67074;SDS011;53990;50.334;18.640;2023-02-23T02:49:24;41.30;;;23.90;;
67074;SDS011;53990;50.334;18.640;2023-02-23T02:54:24;43.20;;;24.10;;
67074;SDS011;53990;50.334;18.640;2023-02-23T02:56:55;41.20;;;24.00;;
67074;SDS011;53990;50.334;18.640;2023-02-23T02:59:23;41.70;;;23.50;;
67074;SDS011;53990;50.334;18.640;2023-02-23T03:02:18;37.00;;;22.30;;
67074;SDS011;53990;50.334;18.640;2023-02-23T03:05:20;38.70;;;23.20;;
67074;SDS011;53990;50.334;18.640;2023-02-23T03:08:53;37.80;;;22.40;;
67074;SDS011;53990;50.334;18.640;2023-02-23T03:11:48;43.00;;;23.70;;
67074;SDS011;53990;50.334;18.640;2023-02-23T03:14:49;41.40;;;23.80;;
67074;SDS011;53990;50.334;18.640;2023-02-23T03:17:44;45.20;;;25.90;;
67074;SDS011;53990;50.334;18.640;2023-02-23T03:26:44;37.90;;;24.10;;
67074;SDS011;53990;50.334;18.640;2023-02-23T03:32:36;44.20;;;24.20;;
67074;SDS011;53990;50.334;18.640;2023-02-23T03:35:49;42.40;;;24.00;;
67074;SDS011;53990;50.334;18.640;2023-02-23T03:38:56;39.90;;;23.80;;
67074;SDS011;53990;50.334;18.640;2023-02-23T03:41:44;43.00;;;24.70;;
67074;SDS011;53990;50.334;18.640;2023-02-23T03:44:35;43.50;;;23.90;;
67074;SDS011;53990;50.334;18.640;2023-02-23T03:47:26;40.80;;;24.70;;
67074;SDS011;53990;50.334;18.640;2023-02-23T03:50:30;36.20;;;22.10;;
67074;SDS011;53990;50.334;18.640;2023-02-23T03:53:21;41.30;;;23.10;;
67074;SDS011;53990;50.334;18.640;2023-02-23T03:56:11;37.20;;;21.80;;
67074;SDS011;53990;50.334;18.640;2023-02-23T03:58:59;38.00;;;22.60;;
67074;SDS011;53990;50.334;18.640;2023-02-23T04:01:50;36.00;;;21.60;;
67074;SDS011;53990;50.334;18.640;2023-02-23T04:04:38;35.90;;;21.80;;
67074;SDS011;53990;50.334;18.640;2023-02-23T04:07:24;34.90;;;21.10;;
67074;SDS011;53990;50.334;18.640;2023-02-23T04:10:11;40.00;;;21.80;;
67074;SDS011;53990;50.334;18.640;2023-02-23T04:13:07;38.10;;;21.50;;
67074;SDS011;53990;50.334;18.640;2023-02-23T04:18:17;35.60;;;21.70;;
67074;SDS011;53990;50.334;18.640;2023-02-23T04:20:46;38.90;;;22.60;;
67074;SDS011;53990;50.334;18.640;2023-02-23T04:23:14;40.00;;;21.30;;
67074;SDS011;53990;50.334;18.640;2023-02-23T04:25:41;35.50;;;21.00;;
67074;SDS011;53990;50.334;18.640;2023-02-23T04:28:08;36.40;;;21.30;;
67074;SDS011;53990;50.334;18.640;2023-02-23T04:30:36;38.80;;;21.60;;
67074;SDS011;53990;50.334;18.640;2023-02-23T04:33:03;36.30;;;21.10;;
67074;SDS011;53990;50.334;18.640;2023-02-23T04:35:30;36.60;;;21.50;;
67074;SDS011;53990;50.334;18.640;2023-02-23T04:37:57;35.50;;;20.80;;
67074;SDS011;53990;50.334;18.640;2023-02-23T04:40:25;37.00;;;21.20;;
67074;SDS011;53990;50.334;18.640;2023-02-23T04:42:53;40.70;;;22.70;;
67074;SDS011;53990;50.334;18.640;2023-02-23T04:45:23;38.30;;;21.50;;
67074;SDS011;53990;50.334;18.640;2023-02-23T04:47:50;37.30;;;21.50;;
67074;SDS011;53990;50.334;18.640;2023-02-23T04:50:19;35.60;;;21.20;;
67074;SDS011;53990;50.334;18.640;2023-02-23T04:52:46;37.20;;;21.90;;
67074;SDS011;53990;50.334;18.640;2023-02-23T04:55:17;37.50;;;21.20;;
67074;SDS011;53990;50.334;18.640;2023-02-23T04:57:45;38.30;;;21.60;;
67074;SDS011;53990;50.334;18.640;2023-02-23T05:00:14;36.20;;;21.70;;
67074;SDS011;53990;50.334;18.640;2023-02-23T05:02:41;38.10;;;21.10;;
67074;SDS011;53990;50.334;18.640;2023-02-23T05:05:08;37.10;;;20.40;;
67074;SDS011;53990;50.334;18.640;2023-02-23T05:07:36;40.00;;;21.30;;
67074;SDS011;53990;50.334;18.640;2023-02-23T05:10:05;38.80;;;21.10;;
67074;SDS011;53990;50.334;18.640;2023-02-23T05:12:32;39.70;;;21.10;;
67074;SDS011;53990;50.334;18.640;2023-02-23T05:14:59;35.80;;;21.20;;
67074;SDS011;53990;50.334;18.640;2023-02-23T05:17:27;37.50;;;20.70;;
67074;SDS011;53990;50.334;18.640;2023-02-23T05:19:54;38.70;;;20.40;;
67074;SDS011;53990;50.334;18.640;2023-02-23T05:22:22;34.30;;;19.90;;
67074;SDS011;53990;50.334;18.640;2023-02-23T05:24:49;38.00;;;21.00;;
67074;SDS011;53990;50.334;18.640;2023-02-23T05:27:17;36.10;;;21.20;;
67074;SDS011;53990;50.334;18.640;2023-02-23T05:29:45;34.90;;;20.80;;
67074;SDS011;53990;50.334;18.640;2023-02-23T05:32:12;37.90;;;21.60;;
67074;SDS011;53990;50.334;18.640;2023-02-23T05:34:39;40.60;;;21.60;;
67074;SDS011;53990;50.334;18.640;2023-02-23T05:37:08;36.10;;;21.00;;
67074;SDS011;53990;50.334;18.640;2023-02-23T05:39:35;37.10;;;21.30;;
67074;SDS011;53990;50.334;18.640;2023-02-23T05:42:02;42.20;;;22.70;;
67074;SDS011;53990;50.334;18.640;2023-02-23T05:44:30;41.60;;;23.30;;
67074;SDS011;53990;50.334;18.640;2023-02-23T05:46:57;35.60;;;22.10;;
67074;SDS011;53990;50.334;18.640;2023-02-23T05:49:24;42.20;;;21.60;;
67074;SDS011;53990;50.334;18.640;2023-02-23T05:51:52;38.60;;;21.50;;
67074;SDS011;53990;50.334;18.640;2023-02-23T05:54:19;39.70;;;22.70;;
67074;SDS011;53990;50.334;18.640;2023-02-23T05:56:46;41.20;;;22.70;;
67074;SDS011;53990;50.334;18.640;2023-02-23T05:59:13;36.40;;;22.30;;
67074;SDS011;53990;50.334;18.640;2023-02-23T06:01:43;40.70;;;23.40;;
67074;SDS011;53990;50.334;18.640;2023-02-23T06:04:10;43.60;;;22.80;;
67074;SDS011;53990;50.334;18.640;2023-02-23T06:06:37;38.40;;;23.40;;
67074;SDS011;53990;50.334;18.640;2023-02-23T06:09:05;44.60;;;22.90;;
67074;SDS011;53990;50.334;18.640;2023-02-23T06:11:32;42.80;;;23.10;;
67074;SDS011;53990;50.334;18.640;2023-02-23T06:13:59;41.40;;;23.70;;
67074;SDS011;53990;50.334;18.640;2023-02-23T06:16:27;40.30;;;23.60;;
67074;SDS011;53990;50.334;18.640;2023-02-23T06:18:54;49.00;;;25.30;;
67074;SDS011;53990;50.334;18.640;2023-02-23T06:21:21;43.90;;;25.50;;
67074;SDS011;53990;50.334;18.640;2023-02-23T06:23:48;43.70;;;25.70;;
67074;SDS011;53990;50.334;18.640;2023-02-23T06:26:16;45.90;;;25.70;;
67074;SDS011;53990;50.334;18.640;2023-02-23T06:28:43;48.20;;;25.90;;
67074;SDS011;53990;50.334;18.640;2023-02-23T06:31:10;47.60;;;25.90;;
67074;SDS011;53990;50.334;18.640;2023-02-23T06:33:37;52.10;;;29.20;;
67074;SDS011;53990;50.334;18.640;2023-02-23T06:36:05;50.60;;;27.80;;
67074;SDS011;53990;50.334;18.640;2023-02-23T06:38:32;45.60;;;26.50;;
67074;SDS011;53990;50.334;18.640;2023-02-23T06:41:05;45.10;;;25.90;;
67074;SDS011;53990;50.334;18.640;2023-02-23T06:43:33;53.30;;;28.40;;
67074;SDS011;53990;50.334;18.640;2023-02-23T06:46:00;46.80;;;28.00;;
67074;SDS011;53990;50.334;18.640;2023-02-23T06:48:27;47.20;;;29.20;;
67074;SDS011;53990;50.334;18.640;2023-02-23T06:50:58;45.80;;;27.70;;
67074;SDS011;53990;50.334;18.640;2023-02-23T06:53:26;51.70;;;28.40;;
67074;SDS011;53990;50.334;18.640;2023-02-23T06:55:53;45.10;;;26.90;;
67074;SDS011;53990;50.334;18.640;2023-02-23T06:58:20;48.40;;;28.00;;
67074;SDS011;53990;50.334;18.640;2023-02-23T07:00:47;47.30;;;28.30;;
67074;SDS011;53990;50.334;18.640;2023-02-23T07:03:15;46.70;;;29.20;;
67074;SDS011;53990;50.334;18.640;2023-02-23T07:05:42;51.70;;;29.50;;
67074;SDS011;53990;50.334;18.640;2023-02-23T07:08:10;52.70;;;30.10;;
67074;SDS011;53990;50.334;18.640;2023-02-23T07:10:37;56.40;;;30.80;;
67074;SDS011;53990;50.334;18.640;2023-02-23T07:13:04;50.20;;;29.60;;
67074;SDS011;53990;50.334;18.640;2023-02-23T07:15:31;49.00;;;29.50;;
67074;SDS011;53990;50.334;18.640;2023-02-23T07:17:59;53.50;;;31.40;;
67074;SDS011;53990;50.334;18.640;2023-02-23T07:20:26;55.00;;;31.10;;
67074;SDS011;53990;50.334;18.640;2023-02-23T07:22:53;60.60;;;33.00;;
67074;SDS011;53990;50.334;18.640;2023-02-23T07:25:20;61.10;;;34.90;;
67074;SDS011;53990;50.334;18.640;2023-02-23T07:27:48;58.10;;;31.30;;
67074;SDS011;53990;50.334;18.640;2023-02-23T07:30:15;53.70;;;30.50;;
67074;SDS011;53990;50.334;18.640;2023-02-23T07:32:44;54.50;;;32.10;;
67074;SDS011;53990;50.334;18.640;2023-02-23T07:35:11;55.00;;;30.70;;
67074;SDS011;53990;50.334;18.640;2023-02-23T07:37:39;53.70;;;30.60;;
67074;SDS011;53990;50.334;18.640;2023-02-23T07:40:07;52.80;;;32.20;;
67074;SDS011;53990;50.334;18.640;2023-02-23T07:42:35;59.50;;;33.30;;
67074;SDS011;53990;50.334;18.640;2023-02-23T07:45:02;53.30;;;30.70;;
67074;SDS011;53990;50.334;18.640;2023-02-23T07:47:30;52.50;;;30.00;;
67074;SDS011;53990;50.334;18.640;2023-02-23T07:49:58;54.50;;;31.40;;
67074;SDS011;53990;50.334;18.640;2023-02-23T07:52:26;55.30;;;32.60;;
67074;SDS011;53990;50.334;18.640;2023-02-23T07:54:54;52.00;;;32.10;;
67074;SDS011;53990;50.334;18.640;2023-02-23T07:57:21;62.70;;;36.70;;
67074;SDS011;53990;50.334;18.640;2023-02-23T07:59:49;52.00;;;31.00;;
67074;SDS011;53990;50.334;18.640;2023-02-23T08:02:17;50.40;;;31.30;;
67074;SDS011;53990;50.334;18.640;2023-02-23T08:04:44;52.30;;;33.00;;
67074;SDS011;53990;50.334;18.640;2023-02-23T08:07:12;53.30;;;32.90;;
67074;SDS011;53990;50.334;18.640;2023-02-23T08:09:39;53.60;;;31.40;;
67074;SDS011;53990;50.334;18.640;2023-02-23T08:12:06;55.70;;;32.30;;
67074;SDS011;53990;50.334;18.640;2023-02-23T08:14:34;50.10;;;29.60;;
67074;SDS011;53990;50.334;18.640;2023-02-23T08:17:01;49.60;;;31.20;;
67074;SDS011;53990;50.334;18.640;2023-02-23T08:19:29;51.60;;;32.50;;
67074;SDS011;53990;50.334;18.640;2023-02-23T08:21:56;51.10;;;31.30;;
67074;SDS011;53990;50.334;18.640;2023-02-23T08:24:24;54.80;;;31.60;;
67074;SDS011;53990;50.334;18.640;2023-02-23T08:26:52;52.60;;;31.00;;
67074;SDS011;53990;50.334;18.640;2023-02-23T08:29:19;51.00;;;31.50;;
67074;SDS011;53990;50.334;18.640;2023-02-23T08:31:47;50.70;;;30.90;;
67074;SDS011;53990;50.334;18.640;2023-02-23T08:34:15;55.20;;;32.00;;
67074;SDS011;53990;50.334;18.640;2023-02-23T08:36:45;53.40;;;31.20;;
67074;SDS011;53990;50.334;18.640;2023-02-23T08:39:14;54.20;;;32.80;;
67074;SDS011;53990;50.334;18.640;2023-02-23T08:41:42;47.70;;;31.10;;
67074;SDS011;53990;50.334;18.640;2023-02-23T08:44:09;52.30;;;31.80;;
67074;SDS011;53990;50.334;18.640;2023-02-23T08:46:37;51.60;;;30.70;;
67074;SDS011;53990;50.334;18.640;2023-02-23T08:49:04;50.80;;;30.20;;
67074;SDS011;53990;50.334;18.640;2023-02-23T08:51:32;48.70;;;31.10;;
67074;SDS011;53990;50.334;18.640;2023-02-23T08:54:01;52.50;;;31.30;;
67074;SDS011;53990;50.334;18.640;2023-02-23T08:56:28;52.50;;;31.00;;
67074;SDS011;53990;50.334;18.640;2023-02-23T08:58:59;51.10;;;30.60;;
67074;SDS011;53990;50.334;18.640;2023-02-23T09:01:26;52.20;;;30.30;;
67074;SDS011;53990;50.334;18.640;2023-02-23T09:03:53;51.40;;;30.40;;
67074;SDS011;53990;50.334;18.640;2023-02-23T09:06:23;54.20;;;32.40;;
67074;SDS011;53990;50.334;18.640;2023-02-23T09:08:52;56.50;;;32.30;;
67074;SDS011;53990;50.334;18.640;2023-02-23T09:11:21;58.00;;;34.40;;
67074;SDS011;53990;50.334;18.640;2023-02-23T09:13:49;55.60;;;32.70;;
67074;SDS011;53990;50.334;18.640;2023-02-23T09:16:17;53.70;;;32.40;;
67074;SDS011;53990;50.334;18.640;2023-02-23T09:18:44;51.90;;;31.60;;
67074;SDS011;53990;50.334;18.640;2023-02-23T09:21:17;56.00;;;32.10;;
67074;SDS011;53990;50.334;18.640;2023-02-23T09:23:47;53.60;;;33.10;;
67074;SDS011;53990;50.334;18.640;2023-02-23T09:26:18;53.70;;;33.30;;
67074;SDS011;53990;50.334;18.640;2023-02-23T09:28:47;54.00;;;33.10;;
67074;SDS011;53990;50.334;18.640;2023-02-23T09:31:18;53.60;;;31.80;;
67074;SDS011;53990;50.334;18.640;2023-02-23T09:33:47;50.20;;;31.30;;
67074;SDS011;53990;50.334;18.640;2023-02-23T09:36:17;49.60;;;31.00;;
67074;SDS011;53990;50.334;18.640;2023-02-23T09:38:48;52.70;;;31.50;;
67074;SDS011;53990;50.334;18.640;2023-02-23T09:41:43;52.00;;;30.80;;
67074;SDS011;53990;50.334;18.640;2023-02-23T09:44:22;51.40;;;30.50;;
67074;SDS011;53990;50.334;18.640;2023-02-23T09:49:28;45.10;;;29.50;;
67074;SDS011;53990;50.334;18.640;2023-02-23T09:52:00;43.90;;;28.90;;
67074;SDS011;53990;50.334;18.640;2023-02-23T09:54:32;44.90;;;28.30;;
67074;SDS011;53990;50.334;18.640;2023-02-23T09:57:03;45.40;;;27.80;;
67074;SDS011;53990;50.334;18.640;2023-02-23T09:59:33;49.50;;;28.50;;
67074;SDS011;53990;50.334;18.640;2023-02-23T10:02:11;46.00;;;28.80;;
67074;SDS011;53990;50.334;18.640;2023-02-23T10:04:46;47.00;;;28.70;;
67074;SDS011;53990;50.334;18.640;2023-02-23T10:07:44;48.10;;;28.40;;
67074;SDS011;53990;50.334;18.640;2023-02-23T10:10:31;48.50;;;28.00;;
67074;SDS011;53990;50.334;18.640;2023-02-23T10:15:59;45.30;;;28.20;;
67074;SDS011;53990;50.334;18.640;2023-02-23T10:21:38;45.60;;;28.20;;
67074;SDS011;53990;50.334;18.640;2023-02-23T10:24:15;45.10;;;29.20;;
67074;SDS011;53990;50.334;18.640;2023-02-23T10:26:50;51.80;;;29.20;;
67074;SDS011;53990;50.334;18.640;2023-02-23T10:29:29;44.00;;;28.00;;
67074;SDS011;53990;50.334;18.640;2023-02-23T10:32:05;45.40;;;27.20;;
67074;SDS011;53990;50.334;18.640;2023-02-23T10:34:34;43.80;;;27.10;;
67074;SDS011;53990;50.334;18.640;2023-02-23T10:37:05;45.80;;;28.10;;
67074;SDS011;53990;50.334;18.640;2023-02-23T10:39:32;43.60;;;28.00;;
67074;SDS011;53990;50.334;18.640;2023-02-23T10:42:05;45.90;;;28.90;;
67074;SDS011;53990;50.334;18.640;2023-02-23T10:44:33;44.10;;;27.40;;
67074;SDS011;53990;50.334;18.640;2023-02-23T10:47:07;45.80;;;27.30;;
67074;SDS011;53990;50.334;18.640;2023-02-23T10:52:40;43.10;;;27.40;;
67074;SDS011;53990;50.334;18.640;2023-02-23T10:58:00;45.10;;;27.80;;
67074;SDS011;53990;50.334;18.640;2023-02-23T11:00:29;52.50;;;31.00;;
67074;SDS011;53990;50.334;18.640;2023-02-23T11:03:00;46.60;;;27.30;;
67074;SDS011;53990;50.334;18.640;2023-02-23T11:05:35;46.30;;;27.90;;
67074;SDS011;53990;50.334;18.640;2023-02-23T11:11:04;44.50;;;28.90;;
67074;SDS011;53990;50.334;18.640;2023-02-23T11:13:39;44.70;;;28.90;;
67074;SDS011;53990;50.334;18.640;2023-02-23T11:16:10;43.50;;;29.00;;
67074;SDS011;53990;50.334;18.640;2023-02-23T11:18:41;46.50;;;30.20;;
67074;SDS011;53990;50.334;18.640;2023-02-23T11:21:16;47.30;;;29.60;;
67074;SDS011;53990;50.334;18.640;2023-02-23T11:23:45;46.40;;;29.00;;
67074;SDS011;53990;50.334;18.640;2023-02-23T11:26:37;43.90;;;28.50;;
67074;SDS011;53990;50.334;18.640;2023-02-23T11:29:33;47.60;;;29.60;;
67074;SDS011;53990;50.334;18.640;2023-02-23T11:34:35;45.70;;;28.60;;
67074;SDS011;53990;50.334;18.640;2023-02-23T11:37:18;41.10;;;27.70;;
67074;SDS011;53990;50.334;18.640;2023-02-23T11:42:22;44.90;;;29.30;;
67074;SDS011;53990;50.334;18.640;2023-02-23T11:47:29;42.00;;;27.80;;
67074;SDS011;53990;50.334;18.640;2023-02-23T11:49:58;41.50;;;27.80;;
67074;SDS011;53990;50.334;18.640;2023-02-23T11:52:25;46.30;;;27.60;;
67074;SDS011;53990;50.334;18.640;2023-02-23T11:54:59;41.10;;;26.80;;
67074;SDS011;53990;50.334;18.640;2023-02-23T11:57:30;45.90;;;27.90;;
67074;SDS011;53990;50.334;18.640;2023-02-23T12:00:19;42.40;;;27.00;;
67074;SDS011;53990;50.334;18.640;2023-02-23T12:02:57;42.30;;;27.40;;
67074;SDS011;53990;50.334;18.640;2023-02-23T12:05:29;46.40;;;31.80;;
67074;SDS011;53990;50.334;18.640;2023-02-23T12:08:06;43.40;;;28.70;;
67074;SDS011;53990;50.334;18.640;2023-02-23T12:10:44;38.90;;;26.30;;
67074;SDS011;53990;50.334;18.640;2023-02-23T12:13:26;40.10;;;26.50;;
67074;SDS011;53990;50.334;18.640;2023-02-23T12:16:03;38.50;;;24.90;;
67074;SDS011;53990;50.334;18.640;2023-02-23T12:19:03;42.90;;;28.50;;
67074;SDS011;53990;50.334;18.640;2023-02-23T12:21:48;47.80;;;28.80;;
67074;SDS011;53990;50.334;18.640;2023-02-23T12:24:43;46.90;;;30.20;;
67074;SDS011;53990;50.334;18.640;2023-02-23T12:30:26;42.90;;;28.10;;
67074;SDS011;53990;50.334;18.640;2023-02-23T12:32:58;45.00;;;28.90;;
67074;SDS011;53990;50.334;18.640;2023-02-23T12:41:25;42.70;;;29.30;;
67074;SDS011;53990;50.334;18.640;2023-02-23T12:44:07;51.30;;;32.20;;
67074;SDS011;53990;50.334;18.640;2023-02-23T12:46:45;52.10;;;33.30;;
67074;SDS011;53990;50.334;18.640;2023-02-23T12:49:40;52.40;;;33.20;;
67074;SDS011;53990;50.334;18.640;2023-02-23T12:52:19;49.60;;;33.20;;
67074;SDS011;53990;50.334;18.640;2023-02-23T12:54:47;49.80;;;29.90;;
67074;SDS011;53990;50.334;18.640;2023-02-23T12:57:34;48.50;;;30.40;;
67074;SDS011;53990;50.334;18.640;2023-02-23T13:03:46;56.60;;;33.10;;
67074;SDS011;53990;50.334;18.640;2023-02-23T13:08:59;50.40;;;32.40;;
67074;SDS011;53990;50.334;18.640;2023-02-23T13:14:52;46.30;;;30.80;;
67074;SDS011;53990;50.334;18.640;2023-02-23T13:17:30;47.20;;;31.00;;
67074;SDS011;53990;50.334;18.640;2023-02-23T13:20:02;48.60;;;30.10;;
67074;SDS011;53990;50.334;18.640;2023-02-23T13:28:19;46.60;;;29.50;;
67074;SDS011;53990;50.334;18.640;2023-02-23T13:30:48;42.40;;;30.30;;
67074;SDS011;53990;50.334;18.640;2023-02-23T13:33:26;47.80;;;29.50;;
67074;SDS011;53990;50.334;18.640;2023-02-23T13:35:57;46.80;;;30.50;;
67074;SDS011;53990;50.334;18.640;2023-02-23T13:41:28;53.50;;;34.10;;
67074;SDS011;53990;50.334;18.640;2023-02-23T13:44:29;48.30;;;31.90;;
67074;SDS011;53990;50.334;18.640;2023-02-23T13:47:28;46.50;;;30.80;;
67074;SDS011;53990;50.334;18.640;2023-02-23T13:50:18;43.60;;;30.50;;
67074;SDS011;53990;50.334;18.640;2023-02-23T13:52:53;44.60;;;29.50;;
67074;SDS011;53990;50.334;18.640;2023-02-23T13:58:13;47.20;;;29.70;;
67074;SDS011;53990;50.334;18.640;2023-02-23T14:00:42;48.10;;;29.50;;
67074;SDS011;53990;50.334;18.640;2023-02-23T14:03:25;45.80;;;29.10;;
67074;SDS011;53990;50.334;18.640;2023-02-23T14:05:58;46.70;;;29.30;;
67074;SDS011;53990;50.334;18.640;2023-02-23T14:08:35;47.80;;;30.40;;
67074;SDS011;53990;50.334;18.640;2023-02-23T14:11:04;46.00;;;29.70;;
67074;SDS011;53990;50.334;18.640;2023-02-23T14:13:38;44.70;;;30.10;;
67074;SDS011;53990;50.334;18.640;2023-02-23T14:16:13;45.60;;;30.00;;
67074;SDS011;53990;50.334;18.640;2023-02-23T14:19:13;49.90;;;31.50;;
67074;SDS011;53990;50.334;18.640;2023-02-23T14:22:05;44.70;;;29.30;;
67074;SDS011;53990;50.334;18.640;2023-02-23T14:24:43;45.20;;;30.00;;
67074;SDS011;53990;50.334;18.640;2023-02-23T14:27:20;45.80;;;29.40;;
67074;SDS011;53990;50.334;18.640;2023-02-23T14:32:48;42.90;;;28.10;;
67074;SDS011;53990;50.334;18.640;2023-02-23T14:38:00;41.70;;;27.00;;
67074;SDS011;53990;50.334;18.640;2023-02-23T14:40:34;43.20;;;26.90;;
67074;SDS011;53990;50.334;18.640;2023-02-23T14:46:00;45.40;;;27.60;;
67074;SDS011;53990;50.334;18.640;2023-02-23T14:48:32;45.90;;;28.50;;
67074;SDS011;53990;50.334;18.640;2023-02-23T14:51:19;45.90;;;28.20;;
67074;SDS011;53990;50.334;18.640;2023-02-23T14:53:47;44.30;;;28.60;;
67074;SDS011;53990;50.334;18.640;2023-02-23T14:56:20;49.90;;;30.20;;
67074;SDS011;53990;50.334;18.640;2023-02-23T14:58:51;44.80;;;29.10;;
67074;SDS011;53990;50.334;18.640;2023-02-23T15:01:46;48.70;;;29.70;;
67074;SDS011;53990;50.334;18.640;2023-02-23T15:04:17;48.50;;;30.50;;
67074;SDS011;53990;50.334;18.640;2023-02-23T15:06:47;47.50;;;29.70;;
67074;SDS011;53990;50.334;18.640;2023-02-23T15:09:24;48.50;;;30.50;;
67074;SDS011;53990;50.334;18.640;2023-02-23T15:11:58;52.70;;;33.40;;
67074;SDS011;53990;50.334;18.640;2023-02-23T15:14:27;49.60;;;32.00;;
67074;SDS011;53990;50.334;18.640;2023-02-23T15:16:56;51.00;;;31.10;;
67074;SDS011;53990;50.334;18.640;2023-02-23T15:19:24;53.40;;;30.20;;
67074;SDS011;53990;50.334;18.640;2023-02-23T15:21:56;51.90;;;30.60;;
67074;SDS011;53990;50.334;18.640;2023-02-23T15:24:26;51.00;;;30.10;;
67074;SDS011;53990;50.334;18.640;2023-02-23T15:26:55;52.40;;;30.70;;
67074;SDS011;53990;50.334;18.640;2023-02-23T15:29:24;57.50;;;35.80;;
67074;SDS011;53990;50.334;18.640;2023-02-23T15:31:53;53.80;;;30.90;;
67074;SDS011;53990;50.334;18.640;2023-02-23T15:34:23;57.70;;;33.30;;
67074;SDS011;53990;50.334;18.640;2023-02-23T15:39:45;55.00;;;32.80;;
67074;SDS011;53990;50.334;18.640;2023-02-23T15:42:16;56.80;;;33.60;;
67074;SDS011;53990;50.334;18.640;2023-02-23T15:44:44;55.60;;;33.90;;
67074;SDS011;53990;50.334;18.640;2023-02-23T15:47:19;48.70;;;30.30;;
67074;SDS011;53990;50.334;18.640;2023-02-23T15:49:47;49.70;;;31.70;;
67074;SDS011;53990;50.334;18.640;2023-02-23T15:52:21;51.00;;;31.10;;
67074;SDS011;53990;50.334;18.640;2023-02-23T15:54:51;54.90;;;34.80;;
67074;SDS011;53990;50.334;18.640;2023-02-23T15:57:31;55.60;;;31.20;;
67074;SDS011;53990;50.334;18.640;2023-02-23T16:00:15;51.20;;;31.00;;
67074;SDS011;53990;50.334;18.640;2023-02-23T16:02:46;51.30;;;31.80;;
67074;SDS011;53990;50.334;18.640;2023-02-23T16:05:20;54.90;;;33.10;;
67074;SDS011;53990;50.334;18.640;2023-02-23T16:08:02;53.70;;;33.10;;
67074;SDS011;53990;50.334;18.640;2023-02-23T16:10:40;55.00;;;33.70;;
67074;SDS011;53990;50.334;18.640;2023-02-23T16:13:11;59.60;;;35.60;;
67074;SDS011;53990;50.334;18.640;2023-02-23T16:15:40;56.60;;;33.50;;
67074;SDS011;53990;50.334;18.640;2023-02-23T16:18:14;54.20;;;33.40;;
67074;SDS011;53990;50.334;18.640;2023-02-23T16:23:42;55.60;;;35.20;;
67074;SDS011;53990;50.334;18.640;2023-02-23T16:26:17;55.50;;;33.50;;